Accueil
METAR-TAF:

METAR-TAF

Aéroports :

Kirsch Municipal Airport

Sturgis, Michigan, États-Unis

latitude: 41-48-46N, longitude: 085-26-21W, altitude: 282 m

Observation

Le bulletin a été fait il y a 21 minutes, à 06:55 UTC
Vent 10 kt de sud/sud-ouest
Température 15°C
Humidité 88%
Pression 1012 hPa
Visibilité: 16.1 km
Nuages épars à une hauteur de 3100 ft
Nuages fragmentés à une hauteur de 7500 ft
Ciel couvert à une hauteur de 9500 ft
pluie faible

METAR: KIRS 210655Z AUTO 21010KT 10SM -RA SCT031 BKN075 OVC095 15/13 A2988 RMK AO2 T01520133

Heure: 03:16 (07:16 UTC)


TAF: absent

Observations et prévisions météorologiques de plus de 4000 aéroports (messages METAR et TAF).

Les stations disponibles sont représentées par des disques jaunes et rouges sur la carte.

Passer la souris dessus pour voir le nom de la station.

Cliquer dessus pour voir les observations et prévisions météorologiques.

Pour changer de carte: cliquez sur les boutons verts avec une croix noire pour zoomer, sur le bouton vert avec un tiret pour effectuer un zoom arrière, ou sur les flèches vertes pour les cartes adjacentes.


METAR-TAF: